createdAt,value
2022-11-06T01:27:26.722Z,8.90
2022-11-06T01:29:54.423Z,8.50
2022-11-06T01:32:21.471Z,8.50
2022-11-06T01:34:50.440Z,8.50
2022-11-06T01:37:17.288Z,8.50
2022-11-06T01:39:44.203Z,8.50
2022-11-06T01:42:13.169Z,8.50
2022-11-06T01:44:43.120Z,8.50
2022-11-06T01:47:25.946Z,8.50
2022-11-06T01:50:00.365Z,8.50
2022-11-06T01:52:29.681Z,8.50
2022-11-06T01:55:14.644Z,8.50
2022-11-06T01:57:42.258Z,8.50
2022-11-06T02:00:10.250Z,8.50
2022-11-06T02:02:39.109Z,8.40
2022-11-06T02:05:06.748Z,8.40
2022-11-06T02:07:34.273Z,8.40
2022-11-06T02:10:01.328Z,8.40
2022-11-06T05:34:22.403Z,8.40
2022-11-06T05:36:49.506Z,7.80
2022-11-06T05:39:16.352Z,7.80
2022-11-06T05:41:43.196Z,7.70
2022-11-06T05:44:10.391Z,7.70
2022-11-06T05:46:52.550Z,7.70
2022-11-06T05:49:19.952Z,7.70
2022-11-06T05:51:47.263Z,7.80
2022-11-06T05:54:14.770Z,7.80
2022-11-06T05:56:41.664Z,7.80
2022-11-06T05:59:08.557Z,7.80
2022-11-06T06:01:36.061Z,7.80
2022-11-06T06:04:03.038Z,7.80
2022-11-06T06:06:30.085Z,7.80
2022-11-06T06:08:57.091Z,7.80
2022-11-06T06:11:23.987Z,7.80
2022-11-06T06:13:50.857Z,7.80
2022-11-06T06:16:17.943Z,7.90
2022-11-06T06:18:44.836Z,7.90
2022-11-06T06:21:11.727Z,7.90
2022-11-06T06:23:38.905Z,7.80
2022-11-06T06:26:06.013Z,7.90
2022-11-06T06:28:33.047Z,7.90
2022-11-06T06:31:03.274Z,7.90
2022-11-06T06:33:30.150Z,7.90
2022-11-06T06:35:57.190Z,7.90
2022-11-06T06:38:25.930Z,7.90
2022-11-06T06:40:54.261Z,7.90
2022-11-06T06:43:21.239Z,7.90
2022-11-06T06:45:48.203Z,7.90
2022-11-06T06:48:15.284Z,7.90
2022-11-06T06:50:42.425Z,7.90
2022-11-06T06:53:09.369Z,7.90
2022-11-06T06:55:36.243Z,7.90
2022-11-06T06:58:03.227Z,8.00
2022-11-06T07:00:30.229Z,8.00
2022-11-06T07:02:57.228Z,8.10
2022-11-06T07:05:24.399Z,8.10
2022-11-06T07:07:51.417Z,8.10
2022-11-06T07:10:18.377Z,8.10
2022-11-06T07:12:45.586Z,8.20
2022-11-06T07:15:12.803Z,8.20
2022-11-06T07:17:39.857Z,8.30
2022-11-06T07:20:07.870Z,8.40
2022-11-06T07:22:37.478Z,8.40
2022-11-06T07:25:06.351Z,8.40
2022-11-06T07:27:33.908Z,8.40
2022-11-06T07:30:01.114Z,8.40
2022-11-06T07:32:28.641Z,8.40
2022-11-06T07:34:55.808Z,8.40
2022-11-06T07:37:23.071Z,8.40
2022-11-06T07:39:49.950Z,8.50
2022-11-06T07:42:16.981Z,8.50
2022-11-06T07:44:56.803Z,8.60
2022-11-06T07:47:23.913Z,8.60
2022-11-06T07:49:51.351Z,8.70
2022-11-06T07:52:18.387Z,8.60
2022-11-06T07:54:46.469Z,8.60
2022-11-06T07:57:13.665Z,8.70
2022-11-06T07:59:40.857Z,8.70
2022-11-06T08:02:12.097Z,8.60
2022-11-06T08:04:39.599Z,8.80
2022-11-06T08:07:06.944Z,9.00
2022-11-06T08:09:33.897Z,9.00
2022-11-06T08:12:00.867Z,9.00
2022-11-06T08:14:27.994Z,9.00
2022-11-06T08:16:55.776Z,9.10
2022-11-06T08:19:22.777Z,9.20
2022-11-06T08:21:49.865Z,9.20
2022-11-06T08:24:21.705Z,9.30
2022-11-06T08:26:49.332Z,9.40
2022-11-06T08:29:16.483Z,9.30
2022-11-06T08:31:43.559Z,9.40
2022-11-06T08:34:10.862Z,9.30
2022-11-06T08:36:49.717Z,9.40
2022-11-06T08:39:17.016Z,9.40
2022-11-06T08:41:45.121Z,9.40
2022-11-06T08:44:12.229Z,9.30
2022-11-06T08:46:39.074Z,9.40
2022-11-06T08:49:06.024Z,9.40
2022-11-06T08:51:33.056Z,9.50
2022-11-06T08:53:59.998Z,9.90
2022-11-06T08:56:26.915Z,10.00
2022-11-06T08:58:55.677Z,9.80
2022-11-06T09:01:24.279Z,9.60
2022-11-06T09:03:51.422Z,9.50
2022-11-06T09:06:18.570Z,9.60
2022-11-06T09:08:45.547Z,9.60
2022-11-06T09:11:13.089Z,9.60
2022-11-06T09:13:40.195Z,9.70
2022-11-06T09:16:12.757Z,9.70
2022-11-06T09:18:42.902Z,9.70
2022-11-06T09:21:09.987Z,9.70
2022-11-06T09:23:36.992Z,9.80
2022-11-06T09:26:04.220Z,9.90
2022-11-06T09:28:31.209Z,9.90
2022-11-06T09:30:58.098Z,10.10
2022-11-06T09:33:25.008Z,10.00
2022-11-06T09:35:52.931Z,9.80
2022-11-06T09:38:19.971Z,9.80
2022-11-06T09:40:57.989Z,9.90
2022-11-06T09:44:04.563Z,9.80
2022-11-06T09:46:39.296Z,9.80
2022-11-06T09:49:11.630Z,9.80
2022-11-06T09:52:02.319Z,9.80
2022-11-06T09:54:36.393Z,9.80
2022-11-06T09:57:29.752Z,9.90
2022-11-06T09:59:57.869Z,9.80
2022-11-06T10:02:38.101Z,9.80
2022-11-06T10:05:11.227Z,10.00
2022-11-06T10:07:41.599Z,10.10
2022-11-06T10:10:16.748Z,10.10
2022-11-06T10:13:17.530Z,10.10
2022-11-06T10:15:50.599Z,10.00
2022-11-06T10:18:36.431Z,10.10
2022-11-06T10:21:12.518Z,10.00
2022-11-06T10:23:52.255Z,10.00
2022-11-06T10:26:23.874Z,10.00
2022-11-06T10:29:30.874Z,10.00
2022-11-06T10:32:25.676Z,10.10
2022-11-06T10:34:59.362Z,10.00
2022-11-06T10:37:42.640Z,10.20
2022-11-06T10:40:18.158Z,10.10
2022-11-06T10:42:48.988Z,10.00
2022-11-06T10:45:18.002Z,10.00
2022-11-06T10:48:14.605Z,10.00
2022-11-06T10:51:02.539Z,10.10
2022-11-06T10:53:46.026Z,10.10
2022-11-06T10:56:22.954Z,10.10
2022-11-06T10:58:50.027Z,10.10
2022-11-06T11:01:17.043Z,10.10
2022-11-06T11:03:46.277Z,10.10
2022-11-06T11:06:13.185Z,10.10
2022-11-06T11:08:42.283Z,10.20
2022-11-06T11:11:18.132Z,10.30
2022-11-06T11:14:01.677Z,10.40
2022-11-06T11:16:33.856Z,10.40
2022-11-06T11:19:25.137Z,10.50
2022-11-06T11:22:00.726Z,10.60
2022-11-06T11:24:28.236Z,10.60
2022-11-06T11:27:07.005Z,10.70
2022-11-06T11:29:48.096Z,10.60
2022-11-06T11:32:17.519Z,10.60
2022-11-06T11:34:52.624Z,10.60
2022-11-06T11:37:34.020Z,10.60
2022-11-06T11:40:36.242Z,10.70
2022-11-06T11:43:27.982Z,10.70
2022-11-06T11:46:10.010Z,10.60
2022-11-06T11:48:46.034Z,10.60
2022-11-06T11:51:35.375Z,10.60
2022-11-06T11:54:14.178Z,10.60
2022-11-06T11:57:10.303Z,10.70
2022-11-06T11:59:43.540Z,10.70
2022-11-06T12:02:28.437Z,10.60
2022-11-06T12:05:01.376Z,10.50
2022-11-06T12:07:29.445Z,10.50
2022-11-06T12:09:56.969Z,10.60
2022-11-06T12:12:34.459Z,10.60
2022-11-06T12:15:18.238Z,10.60
2022-11-06T12:18:07.467Z,10.50
2022-11-06T12:20:42.820Z,10.50
2022-11-06T12:23:23.323Z,10.40
2022-11-06T12:26:22.274Z,10.40
2022-11-06T12:28:52.131Z,10.50
2022-11-06T12:32:04.023Z,10.70
2022-11-06T12:34:35.105Z,10.70
2022-11-06T12:37:23.877Z,10.80
2022-11-06T12:40:18.471Z,10.90
2022-11-06T12:43:20.976Z,10.70
2022-11-06T12:46:06.015Z,10.80
2022-11-06T12:49:00.754Z,10.80
2022-11-06T12:51:36.506Z,10.80
2022-11-06T12:54:25.052Z,10.80
2022-11-06T12:56:58.009Z,10.70
2022-11-06T12:59:52.354Z,10.70
2022-11-06T13:02:37.579Z,10.70
2022-11-06T13:05:32.112Z,10.60
2022-11-06T13:08:34.568Z,10.40
2022-11-06T13:11:36.345Z,10.40
2022-11-06T13:14:16.702Z,10.40
2022-11-06T13:17:14.748Z,10.30
2022-11-06T13:19:55.748Z,10.30
2022-11-06T13:22:40.063Z,10.20
2022-11-06T13:25:22.088Z,10.10
2022-11-06T13:27:58.726Z,10.10
2022-11-06T13:30:27.777Z,10.00
2022-11-06T13:32:57.645Z,9.80
2022-11-06T13:35:25.211Z,9.70
2022-11-06T13:37:54.598Z,9.60
2022-11-06T13:40:21.604Z,9.60
2022-11-06T13:43:27.038Z,9.60
2022-11-06T13:46:24.059Z,9.50
2022-11-06T13:49:13.464Z,9.50
2022-11-06T13:51:55.533Z,9.50
2022-11-06T13:54:22.618Z,9.50
2022-11-06T13:57:30.088Z,9.50
2022-11-06T14:00:23.738Z,9.40
2022-11-06T14:03:18.324Z,9.20
2022-11-06T14:06:00.104Z,9.20
2022-11-06T14:08:53.500Z,9.10
2022-11-06T14:11:25.694Z,9.10
2022-11-06T14:14:05.621Z,9.00
2022-11-06T14:16:38.067Z,9.00
2022-11-06T14:19:11.565Z,9.10
2022-11-06T14:21:45.968Z,9.20
2022-11-06T14:24:17.212Z,9.30
2022-11-06T14:26:46.800Z,9.30
2022-11-06T14:29:28.879Z,9.40
2022-11-06T14:32:10.420Z,9.40
2022-11-06T14:34:39.601Z,9.40
2022-11-06T14:37:18.776Z,9.50
2022-11-06T14:39:51.969Z,9.40
2022-11-06T14:42:32.545Z,9.40
2022-11-06T14:45:09.042Z,9.40
2022-11-06T14:47:38.035Z,9.30
2022-11-06T14:50:19.661Z,9.30
2022-11-06T14:52:55.177Z,9.20
2022-11-06T14:55:28.504Z,9.10
2022-11-06T14:58:00.330Z,9.10
2022-11-06T15:00:38.484Z,9.00
2022-11-06T15:03:17.658Z,9.00
2022-11-06T15:05:48.344Z,9.00
2022-11-06T15:08:47.356Z,8.90
2022-11-06T15:11:32.762Z,8.90
2022-11-06T15:14:02.234Z,8.90
2022-11-06T15:17:10.513Z,8.90
2022-11-06T15:19:58.923Z,8.90
2022-11-06T15:22:36.400Z,8.80
2022-11-06T15:25:17.918Z,8.80
2022-11-06T15:27:52.609Z,8.90
2022-11-06T15:30:20.995Z,8.90
2022-11-06T15:32:49.414Z,8.90
2022-11-06T15:35:23.441Z,9.00
2022-11-06T15:38:04.548Z,9.00
2022-11-06T15:40:37.138Z,9.00
2022-11-06T15:43:35.725Z,9.00
2022-11-06T15:46:07.286Z,9.00
2022-11-06T15:48:35.154Z,9.00
2022-11-06T15:51:02.451Z,9.00
2022-11-06T15:53:30.715Z,9.10
2022-11-06T15:56:18.166Z,9.10
2022-11-06T15:58:45.204Z,9.10
2022-11-06T16:01:12.318Z,9.10
2022-11-06T16:03:51.510Z,9.20
2022-11-06T16:06:19.336Z,9.20
2022-11-06T16:08:47.206Z,9.20
2022-11-06T16:11:17.267Z,9.20
2022-11-06T16:13:46.634Z,9.20
2022-11-06T16:16:37.167Z,9.20
2022-11-06T16:19:27.921Z,9.20
2022-11-06T16:22:08.343Z,9.20
2022-11-06T16:24:47.306Z,9.10
2022-11-06T16:27:15.684Z,9.10
2022-11-06T16:29:55.434Z,9.00
2022-11-06T16:32:26.192Z,9.00
2022-11-06T16:34:55.309Z,9.00
2022-11-06T16:37:28.121Z,9.00
2022-11-06T16:39:56.096Z,9.00
2022-11-06T16:42:23.066Z,9.00
2022-11-06T16:45:01.682Z,9.00
2022-11-06T16:47:29.074Z,9.00
2022-11-06T16:49:57.577Z,9.00
2022-11-06T16:52:33.127Z,9.00
2022-11-06T16:55:01.940Z,8.90
2022-11-06T16:57:33.038Z,9.00
2022-11-06T17:00:02.581Z,9.00
2022-11-06T17:02:36.680Z,9.00
2022-11-06T17:05:16.380Z,9.00
2022-11-06T17:07:44.889Z,9.00
2022-11-06T17:10:39.781Z,9.00
2022-11-06T17:13:21.989Z,9.00
2022-11-06T17:15:51.654Z,8.90
2022-11-06T17:18:22.134Z,9.00
2022-11-06T17:20:56.098Z,9.00
2022-11-06T17:23:24.807Z,9.00
2022-11-06T17:25:54.956Z,9.00
2022-11-06T17:28:22.807Z,9.00
2022-11-06T17:30:50.089Z,9.00
2022-11-06T17:33:17.334Z,9.00
2022-11-06T17:35:44.256Z,9.00
2022-11-06T17:38:15.386Z,9.00
2022-11-06T17:40:43.324Z,9.00
2022-11-06T17:43:10.862Z,9.00
2022-11-06T17:45:44.439Z,9.00
2022-11-06T17:48:11.490Z,9.00
2022-11-06T17:50:56.989Z,9.00
2022-11-06T17:53:24.066Z,9.00
2022-11-06T17:55:50.917Z,9.00
2022-11-06T17:58:18.004Z,9.00
2022-11-06T18:00:44.913Z,9.00
2022-11-06T18:03:19.807Z,9.00
2022-11-06T18:05:47.531Z,9.00
2022-11-06T18:08:14.977Z,9.00
2022-11-06T18:10:42.455Z,9.00
2022-11-06T18:13:09.351Z,9.00
2022-11-06T18:15:37.418Z,9.00
2022-11-06T18:18:04.531Z,9.00
2022-11-06T18:20:31.575Z,9.00
2022-11-06T18:22:58.511Z,9.10
2022-11-06T18:25:25.495Z,9.10
2022-11-06T18:27:52.353Z,9.10
2022-11-06T18:30:19.377Z,9.10
2022-11-06T18:32:46.272Z,9.20
2022-11-06T18:35:13.493Z,9.10
2022-11-06T18:37:40.626Z,9.10
2022-11-06T18:40:08.108Z,9.10
2022-11-06T18:42:34.987Z,9.20
2022-11-06T18:45:02.035Z,9.20
2022-11-06T18:47:28.935Z,9.20
2022-11-06T18:49:55.949Z,9.10
2022-11-06T18:52:44.503Z,9.20
2022-11-06T18:55:10.290Z,9.20
2022-11-06T18:57:37.234Z,9.20
2022-11-06T19:00:05.273Z,9.20
2022-11-06T19:02:32.291Z,9.20
2022-11-06T19:04:59.885Z,9.20
2022-11-06T19:07:27.249Z,9.20
2022-11-06T19:09:54.332Z,9.20
2022-11-06T19:12:21.291Z,9.20
2022-11-06T19:14:48.218Z,9.20
2022-11-06T19:17:15.075Z,9.20
2022-11-06T19:19:42.102Z,9.20
2022-11-06T19:22:10.743Z,9.20
2022-11-06T19:24:37.711Z,9.20
2022-11-06T19:27:04.654Z,9.20
2022-11-06T19:29:31.801Z,9.20
2022-11-06T19:32:02.026Z,9.20
2022-11-06T19:34:32.138Z,9.20
2022-11-06T19:37:01.138Z,9.20
2022-11-06T19:39:28.270Z,9.20
2022-11-06T19:41:55.360Z,9.10
2022-11-06T19:44:22.280Z,9.00
2022-11-06T19:46:49.379Z,9.00
2022-11-06T19:49:16.734Z,8.90
2022-11-06T19:51:43.787Z,8.90
2022-11-06T19:54:11.256Z,8.90
2022-11-06T19:57:29.535Z,8.80
2022-11-06T19:59:25.588Z,8.80
2022-11-06T20:01:52.604Z,8.80
2022-11-06T20:04:19.743Z,8.90
2022-11-06T20:06:46.584Z,8.90
2022-11-06T20:09:13.642Z,8.90
2022-11-06T20:11:40.536Z,8.90
2022-11-06T20:14:07.473Z,8.90
2022-11-06T20:16:34.374Z,8.90
2022-11-06T20:19:01.988Z,8.90
2022-11-06T20:21:29.330Z,8.90
2022-11-06T20:23:57.269Z,8.90
2022-11-06T20:26:24.542Z,8.80
2022-11-06T20:28:51.582Z,8.80
2022-11-06T20:31:19.896Z,8.80
2022-11-06T20:33:47.985Z,8.80
2022-11-06T20:36:23.041Z,8.70
2022-11-06T20:38:52.366Z,8.70
2022-11-06T20:41:20.158Z,8.70
2022-11-06T20:43:47.557Z,8.70
2022-11-06T20:46:15.925Z,8.60
2022-11-06T20:48:44.941Z,8.60
2022-11-06T20:51:23.923Z,8.60
2022-11-06T20:53:51.804Z,8.70
2022-11-06T20:56:21.099Z,8.70
2022-11-06T20:58:48.513Z,8.70
2022-11-06T21:01:21.157Z,8.70
2022-11-06T21:03:49.968Z,8.70
2022-11-06T21:06:18.853Z,8.70
2022-11-06T21:08:47.770Z,8.70
2022-11-06T21:11:20.116Z,8.70
2022-11-06T21:13:49.544Z,8.70
2022-11-06T21:16:26.909Z,8.60
2022-11-06T21:18:54.483Z,8.60
2022-11-06T21:21:24.580Z,8.70
2022-11-06T21:23:53.769Z,8.70
2022-11-06T21:26:23.880Z,8.60
2022-11-06T21:28:51.258Z,8.60
2022-11-06T21:31:24.445Z,8.60
2022-11-06T21:33:53.548Z,8.60
2022-11-06T21:36:25.259Z,8.60
2022-11-06T21:38:53.221Z,8.60
2022-11-06T21:41:22.753Z,8.60
2022-11-06T21:43:50.021Z,8.60
2022-11-06T21:46:17.873Z,8.60
2022-11-06T21:48:46.901Z,8.60
2022-11-06T21:51:27.441Z,8.60
2022-11-06T21:54:14.167Z,8.60
2022-11-06T21:56:42.226Z,8.50
2022-11-06T21:59:11.917Z,8.50
2022-11-06T22:01:40.206Z,8.50
2022-11-06T22:04:07.995Z,8.50
2022-11-06T22:06:35.148Z,8.50
2022-11-06T22:09:03.127Z,8.50
2022-11-06T22:11:32.678Z,8.40
2022-11-06T22:14:02.458Z,8.40
2022-11-06T22:16:35.482Z,8.50
2022-11-06T22:19:02.966Z,8.40
2022-11-06T22:21:30.776Z,8.50
2022-11-06T22:23:58.039Z,8.40
2022-11-06T22:26:31.537Z,8.40
2022-11-06T22:29:00.672Z,8.40
2022-11-06T22:31:28.686Z,8.40
2022-11-06T22:33:56.488Z,8.40
2022-11-06T22:36:24.102Z,8.40
2022-11-06T22:38:51.750Z,8.30
2022-11-06T22:41:21.885Z,8.30
2022-11-06T22:43:48.963Z,8.20
2022-11-06T22:46:19.564Z,8.20
2022-11-06T22:48:47.197Z,8.20
2022-11-06T22:51:17.368Z,8.20
2022-11-06T22:53:44.599Z,8.10
2022-11-06T22:56:14.899Z,8.10
2022-11-06T22:58:42.960Z,8.10
2022-11-06T23:01:11.132Z,8.10
2022-11-06T23:03:38.786Z,8.00
2022-11-06T23:06:08.763Z,8.00
2022-11-06T23:08:40.660Z,8.00
2022-11-06T23:11:12.428Z,8.00
2022-11-06T23:13:40.308Z,8.00
2022-11-06T23:16:13.528Z,8.00
2022-11-06T23:18:41.006Z,8.00
2022-11-06T23:21:16.134Z,8.00
2022-11-06T23:23:44.273Z,8.00
2022-11-06T23:26:15.868Z,8.00
2022-11-06T23:28:45.257Z,7.90
2022-11-06T23:31:14.006Z,7.90
2022-11-06T23:33:41.853Z,8.00
2022-11-06T23:36:10.940Z,8.00
2022-11-06T23:38:38.203Z,8.00
2022-11-06T23:41:29.387Z,8.00
2022-11-06T23:43:57.352Z,8.00
2022-11-06T23:46:32.524Z,8.00
2022-11-06T23:49:00.142Z,8.10
2022-11-06T23:51:27.457Z,8.10
2022-11-06T23:53:54.835Z,8.10
2022-11-06T23:56:21.994Z,8.10
2022-11-06T23:58:49.012Z,8.10
